Time;durP1;ratioP1;P1;durP2;ratioP2;P2;SDS_P1;SDS_P2;PMS_P1;PMS_P2;Temp;Humidity;BMP_temperature;BMP_pressure;BME280_temperature;BME280_humidity;BME280_pressure;Samples;Min_cycle;Max_cycle;Signal;HPM_P1;HPM_P2
2022/09/03 00:01:34;;;;;;;1.30;0.47;;;;;;;14.43;72.34;156147.44;5002177;28;20029;-74
2022/09/03 00:04:16;;;;;;;1.05;0.50;;;;;;;14.31;72.70;156117.81;5016562;28;20026;-74
2022/09/03 00:06:51;;;;;;;3.05;0.55;;;;;;;14.23;73.16;156097.25;5030942;28;20041;-73
2022/09/03 00:09:30;;;;;;;4.03;0.73;;;;;;;14.18;73.72;156085.72;5002454;28;20064;-74
2022/09/03 00:12:08;;;;;;;3.03;0.50;;;;;;;14.11;74.13;156066.38;5018422;28;20038;-74
2022/09/03 00:14:52;;;;;;;2.25;0.70;;;;;;;14.00;74.56;156039.41;5005939;28;20041;-74
2022/09/03 00:17:23;;;;;;;1.98;0.80;;;;;;;13.99;74.96;156038.13;4987856;28;20041;-73
2022/09/03 00:19:53;;;;;;;1.73;0.75;;;;;;;13.99;74.93;156038.13;5004005;28;20072;-73
2022/09/03 00:22:33;;;;;;;3.15;0.60;;;;;;;13.98;74.92;156034.28;5002285;28;20044;-74
2022/09/03 00:25:03;;;;;;;2.20;0.60;;;;;;;13.97;74.35;156031.69;5023110;28;20038;-72
2022/09/03 00:27:32;;;;;;;2.47;0.60;;;;;;;14.09;74.03;156061.25;5014250;28;20029;-72
2022/09/03 00:30:08;;;;;;;1.98;0.60;;;;;;;14.04;74.58;156049.69;5002306;28;20089;-73
2022/09/03 00:32:48;;;;;;;5.75;0.70;;;;;;;13.93;74.75;156021.41;5000909;28;20041;-74
2022/09/03 00:35:23;;;;;;;1.65;0.57;;;;;;;13.81;75.46;155991.84;5018814;28;20503;-73
2022/09/03 00:37:54;;;;;;;3.38;0.57;;;;;;;13.87;75.15;156007.25;5002382;28;20470;-73
2022/09/03 00:40:46;;;;;;;3.45;0.70;;;;;;;13.95;74.33;156027.81;5010492;28;20558;-73
2022/09/03 00:43:45;;;;;;;2.60;0.60;;;;;;;13.99;74.66;156038.13;4992010;28;20364;-74
2022/09/03 00:46:30;;;;;;;1.17;0.85;;;;;;;14.01;74.40;156041.97;5001726;28;20049;-73
2022/09/03 00:49:25;;;;;;;2.47;0.63;;;;;;;13.94;74.51;156025.28;5005609;28;20034;-73
2022/09/03 00:52:03;;;;;;;3.35;0.82;;;;;;;14.08;73.73;156059.97;5011299;28;20411;-74
2022/09/03 00:54:37;;;;;;;1.48;0.70;;;;;;;14.06;74.03;156054.81;5002048;28;20091;-72
2022/09/03 00:57:25;;;;;;;1.83;0.90;;;;;;;13.97;74.30;156032.94;5003990;28;20045;-74
2022/09/03 01:00:11;;;;;;;2.10;0.70;;;;;;;13.98;74.01;156034.28;4987727;28;20510;-74
2022/09/03 01:03:04;;;;;;;2.70;0.77;;;;;;;14.10;73.57;156065.09;5009713;28;20037;-75
2022/09/03 01:05:38;;;;;;;1.98;0.70;;;;;;;14.15;73.53;156076.72;5018379;28;20095;-74
2022/09/03 01:08:49;;;;;;;1.25;0.60;;;;;;;14.16;73.64;156079.25;5002913;28;20038;-74
2022/09/03 01:11:21;;;;;;;1.98;0.80;;;;;;;14.16;73.45;156080.53;5020491;28;20041;-74
2022/09/03 01:13:56;;;;;;;2.70;0.77;;;;;;;14.15;73.30;156077.97;5016443;28;20037;-74
2022/09/03 01:16:31;;;;;;;1.35;0.93;;;;;;;14.23;73.25;156096.00;5021498;28;20724;-74
2022/09/03 01:19:21;;;;;;;1.50;0.70;;;;;;;14.14;73.90;156074.09;5029566;28;20071;-74
2022/09/03 01:22:06;;;;;;;3.67;0.70;;;;;;;14.20;72.97;156090.84;5022131;28;20048;-74
2022/09/03 01:25:03;;;;;;;0.90;0.70;;;;;;;14.16;73.68;156079.25;5004647;28;20064;-75
2022/09/03 01:28:02;;;;;;;0.90;0.68;;;;;;;14.02;74.36;156045.81;5017290;28;20574;-73
2022/09/03 01:30:32;;;;;;;2.15;0.80;;;;;;;13.91;75.14;156016.25;5030369;28;20029;-74
2022/09/03 01:33:07;;;;;;;5.97;0.80;;;;;;;13.87;75.27;156007.25;5023539;28;20410;-73
2022/09/03 01:35:45;;;;;;;1.30;0.70;;;;;;;13.86;75.20;156003.41;5015095;28;20038;-71
2022/09/03 01:38:26;;;;;;;1.23;0.80;;;;;;;13.80;75.59;155990.53;5025633;28;20060;-74
2022/09/03 01:42:12;;;;;;;1.23;0.65;;;;;;;13.78;75.68;155984.13;5039964;28;20045;-73
2022/09/03 01:44:03;;;;;;;0.95;0.60;;;;;;;13.77;75.54;155982.84;5022169;28;20046;-73
2022/09/03 01:46:38;;;;;;;2.30;0.80;;;;;;;13.71;76.24;155967.44;5027270;28;20463;-73
2022/09/03 01:49:22;;;;;;;0.85;0.60;;;;;;;13.78;75.84;155984.13;5024527;28;20478;-74
2022/09/03 01:52:10;;;;;;;2.45;0.80;;;;;;;13.80;75.51;155989.25;5014903;28;20045;-73
2022/09/03 01:54:49;;;;;;;1.05;0.80;;;;;;;13.75;75.59;155976.38;5020406;28;20038;-74
2022/09/03 01:57:41;;;;;;;3.08;0.80;;;;;;;13.77;75.34;155982.84;5037174;28;20482;-73
2022/09/03 02:00:19;;;;;;;1.38;0.80;;;;;;;13.80;75.06;155989.25;5009920;28;20034;-73
2022/09/03 02:02:47;;;;;;;1.30;0.80;;;;;;;13.82;74.96;155994.41;5041276;28;20045;-74
2022/09/03 02:05:25;;;;;;;2.90;0.95;;;;;;;13.81;74.94;155993.13;5011574;28;20471;-73
2022/09/03 02:08:04;;;;;;;1.55;0.80;;;;;;;13.76;75.47;155978.97;5023603;28;20092;-73
2022/09/03 02:10:33;;;;;;;3.38;0.98;;;;;;;13.78;74.81;155985.41;5026016;28;20041;-72
2022/09/03 02:13:17;;;;;;;2.00;0.88;;;;;;;13.75;75.58;155976.38;5023992;28;20066;-73
2022/09/03 02:15:45;;;;;;;2.47;1.08;;;;;;;13.75;75.37;155977.72;5020364;28;20047;-72
2022/09/03 02:18:24;;;;;;;4.40;1.00;;;;;;;13.79;74.86;155987.97;5011358;28;20033;-74
2022/09/03 02:20:52;;;;;;;4.70;0.80;;;;;;;13.73;75.33;155972.56;5007388;28;21500;-73
2022/09/03 02:23:18;;;;;;;1.58;0.70;;;;;;;13.66;76.13;155954.56;5016577;28;20041;-72
2022/09/03 02:25:49;;;;;;;4.15;0.80;;;;;;;13.65;76.05;155951.97;5015837;28;20037;-74
2022/09/03 02:28:14;;;;;;;0.70;0.55;;;;;;;13.68;75.82;155958.44;5023372;28;20030;-73
2022/09/03 02:30:41;;;;;;;4.07;0.70;;;;;;;13.62;76.15;155944.28;5009368;28;20045;-74
2022/09/03 02:33:07;;;;;;;1.33;0.77;;;;;;;13.42;77.27;155894.16;5015782;28;20651;-74
2022/09/03 02:35:33;;;;;;;1.98;0.90;;;;;;;13.51;76.64;155917.28;5016071;28;20030;-74
2022/09/03 02:38:15;;;;;;;1.00;0.60;;;;;;;13.42;77.11;155895.41;5003887;28;20044;-74
2022/09/03 02:40:41;;;;;;;2.58;0.65;;;;;;;13.46;77.14;155903.16;5021860;28;20037;-74
2022/09/03 02:43:12;;;;;;;2.85;0.73;;;;;;;13.49;76.92;155910.88;5022668;28;20044;-74
2022/09/03 02:45:44;;;;;;;5.07;0.98;;;;;;;13.47;77.07;155905.69;5039169;28;20615;-73
2022/09/03 02:48:10;;;;;;;2.00;0.77;;;;;;;13.38;77.47;155885.16;5009730;28;20095;-73
2022/09/03 02:50:40;;;;;;;3.42;0.82;;;;;;;13.42;77.32;155895.41;5019970;28;20515;-74
2022/09/03 02:53:06;;;;;;;0.80;0.80;;;;;;;13.35;78.21;155876.16;5006941;28;20077;-73
2022/09/03 02:55:32;;;;;;;1.77;0.77;;;;;;;13.31;77.62;155867.16;5037894;28;20605;-72
2022/09/03 02:57:58;;;;;;;3.42;0.80;;;;;;;13.33;77.52;155871.00;5007983;28;20038;-74
2022/09/03 03:00:24;;;;;;;3.03;0.70;;;;;;;13.32;77.53;155868.47;5026003;28;20104;-75
2022/09/03 03:02:51;;;;;;;2.15;0.85;;;;;;;13.27;77.92;155855.56;5040280;28;20835;-74
2022/09/03 03:05:26;;;;;;;1.52;0.90;;;;;;;13.19;78.15;155836.28;5025702;28;20084;-74
2022/09/03 03:07:52;;;;;;;3.50;0.68;;;;;;;13.14;79.07;155824.69;5020951;28;20108;-75
2022/09/03 03:10:18;;;;;;;4.13;0.80;;;;;;;13.08;78.83;155809.28;4992841;28;20128;-73
2022/09/03 03:12:44;;;;;;;1.08;0.70;;;;;;;13.11;78.64;155815.69;5020255;28;20399;-74
2022/09/03 03:15:09;;;;;;;0.93;0.60;;;;;;;13.19;78.17;155837.56;5036099;28;20140;-74
2022/09/03 03:17:35;;;;;;;2.00;0.80;;;;;;;13.03;79.61;155797.75;5003346;28;20038;-75
2022/09/03 03:20:01;;;;;;;3.97;0.98;;;;;;;13.04;79.51;155800.28;5009754;28;20040;-73
2022/09/03 03:22:27;;;;;;;3.63;0.80;;;;;;;13.07;78.93;155805.41;5021248;28;20543;-74
2022/09/03 03:24:54;;;;;;;2.08;0.93;;;;;;;13.09;78.92;155810.56;5019389;28;20061;-74
2022/09/03 03:27:19;;;;;;;1.60;0.57;;;;;;;13.07;78.82;155805.41;5008071;28;20030;-73
2022/09/03 03:29:45;;;;;;;1.42;0.70;;;;;;;13.04;79.21;155800.28;5027798;28;20313;-74
2022/09/03 03:32:10;;;;;;;3.65;0.80;;;;;;;12.97;79.48;155782.28;5011003;28;20488;-74
2022/09/03 03:34:37;;;;;;;2.65;0.73;;;;;;;12.91;79.38;155766.88;5038026;28;20029;-74
2022/09/03 03:37:03;;;;;;;1.05;0.80;;;;;;;12.85;79.67;155752.75;5017689;28;20025;-74
2022/09/03 03:39:28;;;;;;;3.30;0.70;;;;;;;12.88;79.45;155757.88;4984514;28;20450;-74
2022/09/03 03:41:55;;;;;;;2.15;0.80;;;;;;;12.88;79.57;155759.16;4991253;28;20033;-74
2022/09/03 03:44:20;;;;;;;2.78;0.90;;;;;;;12.84;79.91;155750.16;5013253;28;20328;-74
2022/09/03 03:46:46;;;;;;;1.08;0.57;;;;;;;12.89;79.63;155760.47;5022726;28;20514;-74
2022/09/03 03:49:11;;;;;;;1.75;0.90;;;;;;;12.97;78.91;155782.28;5022157;28;20041;-75
2022/09/03 03:51:37;;;;;;;5.32;1.27;;;;;;;12.96;79.19;155778.44;5025565;28;20032;-73
2022/09/03 03:54:03;;;;;;;2.15;0.77;;;;;;;12.94;78.89;155773.28;4989897;28;20037;-72
2022/09/03 03:56:29;;;;;;;3.13;1.00;;;;;;;12.85;79.61;155752.75;5017988;28;20033;-74
2022/09/03 03:58:55;;;;;;;6.60;0.80;;;;;;;12.85;79.65;155751.47;5000449;28;20423;-74
2022/09/03 04:01:24;;;;;;;4.47;1.05;;;;;;;12.79;79.55;155737.34;5022174;28;20583;-74
2022/09/03 04:03:50;;;;;;;1.98;0.75;;;;;;;12.66;80.02;155703.94;5003726;28;20831;-73
2022/09/03 04:06:18;;;;;;;3.15;0.88;;;;;;;12.65;80.43;155702.63;5022786;28;20400;-74
2022/09/03 04:08:45;;;;;;;1.23;1.00;;;;;;;12.71;80.82;155716.75;5001354;28;20041;-74
2022/09/03 04:11:13;;;;;;;1.48;0.80;;;;;;;12.57;81.66;155680.81;4991445;28;20041;-74
2022/09/03 04:13:41;;;;;;;5.95;1.10;;;;;;;12.52;81.56;155667.97;5009816;28;20035;-74
2022/09/03 04:16:13;;;;;;;1.92;0.80;;;;;;;12.42;82.21;155644.84;4994767;28;20465;-74
2022/09/03 04:18:40;;;;;;;1.08;0.98;;;;;;;12.32;82.75;155617.84;5003642;28;20073;-73
2022/09/03 04:21:11;;;;;;;2.78;0.75;;;;;;;12.31;82.51;155615.31;5004302;28;20033;-74
2022/09/03 04:23:42;;;;;;;1.42;0.85;;;;;;;12.24;82.78;155598.59;5012601;28;20484;-73
2022/09/03 04:26:11;;;;;;;1.52;0.77;;;;;;;12.21;82.91;155592.19;4987859;28;20036;-73
2022/09/03 04:28:37;;;;;;;1.35;0.88;;;;;;;12.29;82.30;155611.44;4990275;28;20133;-73
2022/09/03 04:31:06;;;;;;;2.83;0.93;;;;;;;12.39;81.90;155637.13;5019466;28;20495;-73
2022/09/03 04:33:32;;;;;;;4.68;0.90;;;;;;;12.39;81.64;155637.13;5020238;28;20117;-73
2022/09/03 04:36:07;;;;;;;3.08;0.70;;;;;;;12.42;81.73;155643.56;5020539;28;20081;-74
2022/09/03 04:38:35;;;;;;;1.67;0.90;;;;;;;12.45;80.92;155651.25;5007857;28;20108;-74
2022/09/03 04:41:02;;;;;;;3.35;0.80;;;;;;;12.49;80.89;155661.56;4984887;28;20470;-74
2022/09/03 04:43:28;;;;;;;5.55;0.82;;;;;;;12.54;80.60;155674.38;5026568;28;20068;-74
2022/09/03 04:46:02;;;;;;;3.20;0.95;;;;;;;12.53;80.46;155670.56;5019493;28;20582;-74
2022/09/03 04:48:30;;;;;;;1.17;0.85;;;;;;;12.51;81.00;155665.38;5021634;28;20029;-75
2022/09/03 04:51:05;;;;;;;2.03;0.55;;;;;;;12.53;80.50;155671.81;4989776;28;20025;-75
2022/09/03 04:53:37;;;;;;;1.85;0.80;;;;;;;12.44;81.14;155648.69;5023678;28;20044;-74
2022/09/03 04:56:11;;;;;;;;;;;;;;;12.51;80.63;155665.38;5006603;28;20044;-75
2022/09/03 04:58:36;;;;;;;4.97;1.27;;;;;;;12.58;79.73;155684.69;5019627;28;19917;-74
2022/09/03 05:01:08;;;;;;;3.85;1.00;;;;;;;12.58;79.94;155684.69;4988437;28;20112;-73
2022/09/03 05:03:33;;;;;;;2.83;0.75;;;;;;;12.49;80.52;155661.56;5003907;28;20065;-74
2022/09/03 05:05:59;;;;;;;7.85;0.93;;;;;;;12.57;79.82;155680.81;5006535;28;20549;-75
2022/09/03 05:08:25;;;;;;;2.33;0.70;;;;;;;12.51;80.44;155665.38;5020845;28;20037;-74
2022/09/03 05:11:00;;;;;;;4.93;0.90;;;;;;;12.45;80.68;155651.25;5004343;28;20051;-75
2022/09/03 05:13:27;;;;;;;3.10;0.98;;;;;;;12.54;80.08;155673.09;5008667;28;20079;-74
2022/09/03 05:15:59;;;;;;;2.53;0.85;;;;;;;12.57;79.58;155682.09;5005590;28;20041;-74
2022/09/03 05:18:24;;;;;;;2.63;1.05;;;;;;;12.58;79.97;155684.69;5020159;28;20064;-74
2022/09/03 05:21:01;;;;;;;3.22;0.75;;;;;;;12.60;79.75;155688.50;5012582;28;20057;-75
2022/09/03 05:23:28;;;;;;;4.75;0.88;;;;;;;12.66;79.91;155703.94;5019724;28;20784;-74
2022/09/03 05:26:00;;;;;;;1.08;0.80;;;;;;;12.69;79.60;155711.63;5013015;28;20044;-74
2022/09/03 05:28:27;;;;;;;1.33;0.80;;;;;;;12.78;78.43;155734.75;5013412;28;20045;-73
2022/09/03 05:31:01;;;;;;;2.45;0.95;;;;;;;12.91;78.13;155765.59;5011466;28;20444;-74
2022/09/03 05:33:27;;;;;;;2.72;0.75;;;;;;;13.00;77.07;155788.75;5036945;28;20053;-73
2022/09/03 05:36:04;;;;;;;3.95;0.93;;;;;;;13.04;77.17;155800.28;5006601;28;20030;-74
2022/09/03 05:38:29;;;;;;;5.20;0.88;;;;;;;13.02;77.26;155795.16;5002318;28;20036;-72
2022/09/03 05:41:00;;;;;;;3.70;0.85;;;;;;;13.11;77.37;155817.00;5035824;28;20034;-74
2022/09/03 05:43:29;;;;;;;1.50;0.70;;;;;;;13.24;76.51;155850.41;5005905;28;20030;-73
2022/09/03 05:46:05;;;;;;;3.80;0.80;;;;;;;13.27;75.91;155856.81;5002978;28;20041;-73
2022/09/03 05:48:32;;;;;;;1.45;0.75;;;;;;;13.42;75.56;155895.41;5017715;28;20498;-73
2022/09/03 05:51:10;;;;;;;1.75;0.80;;;;;;;13.50;75.52;155913.41;5020705;28;20098;-75
2022/09/03 05:53:38;;;;;;;1.67;0.70;;;;;;;13.57;75.05;155932.69;4996877;28;20030;-74
2022/09/03 05:56:09;;;;;;;1.00;0.85;;;;;;;13.70;75.13;155963.56;5006750;28;20056;-73
2022/09/03 05:58:38;;;;;;;1.13;0.70;;;;;;;13.76;74.28;155978.97;4999522;28;20034;-73
2022/09/03 06:01:18;;;;;;;6.70;0.82;;;;;;;13.86;73.61;156003.41;5013375;28;20043;-75
2022/09/03 06:03:46;;;;;;;3.78;0.85;;;;;;;13.95;73.40;156027.81;5002082;28;20509;-73
2022/09/03 06:06:12;;;;;;;3.92;0.90;;;;;;;14.10;73.18;156065.09;5004187;28;20033;-74
2022/09/03 06:08:39;;;;;;;4.47;0.63;;;;;;;14.15;72.53;156076.72;5019758;28;20029;-75
2022/09/03 06:11:06;;;;;;;1.95;0.80;;;;;;;14.24;72.50;156098.53;5025240;28;20037;-75
2022/09/03 06:13:33;;;;;;;1.58;0.70;;;;;;;14.31;71.65;156117.81;5022131;28;20021;-73
2022/09/03 06:16:01;;;;;;;1.20;0.70;;;;;;;14.45;71.89;156151.25;5018721;28;20061;-74
2022/09/03 06:18:27;;;;;;;4.88;0.80;;;;;;;14.52;70.86;156169.25;5026440;28;20030;-73
2022/09/03 06:20:54;;;;;;;2.72;0.90;;;;;;;14.61;70.34;156192.47;5027738;28;20037;-73
2022/09/03 06:23:20;;;;;;;2.53;0.90;;;;;;;14.77;69.92;156232.38;5025600;28;20053;-73
2022/09/03 06:25:46;;;;;;;1.05;0.70;;;;;;;14.74;70.34;156224.63;5022998;28;20083;-76
2022/09/03 06:28:12;;;;;;;2.22;0.63;;;;;;;14.87;70.70;156258.06;5010733;28;20091;-75
2022/09/03 06:30:37;;;;;;;3.58;1.00;;;;;;;15.04;70.21;156299.25;5033013;28;20407;-74
2022/09/03 06:33:03;;;;;;;2.42;0.70;;;;;;;15.14;68.80;156326.28;5027823;28;20029;-74
2022/09/03 06:35:28;;;;;;;2.20;0.70;;;;;;;15.15;68.42;156328.81;5020667;28;20029;-74
2022/09/03 06:37:54;;;;;;;1.58;0.90;;;;;;;15.18;68.48;156336.56;5020750;28;20065;-74
2022/09/03 06:40:21;;;;;;;1.70;0.80;;;;;;;15.25;68.13;156353.25;5022324;28;20108;-74
2022/09/03 06:42:59;;;;;;;2.95;0.88;;;;;;;15.21;67.98;156341.72;5003663;28;20446;-73
2022/09/03 06:45:25;;;;;;;1.75;0.90;;;;;;;15.25;67.32;156353.25;5022264;28;20037;-75
2022/09/03 06:47:50;;;;;;;3.08;0.70;;;;;;;15.34;68.06;156376.44;5011650;28;20029;-73
2022/09/03 06:50:17;;;;;;;3.28;1.00;;;;;;;15.36;67.50;156381.56;4992395;28;20037;-73
2022/09/03 06:52:42;;;;;;;2.70;1.20;;;;;;;15.48;67.91;156411.19;5006776;28;20046;-74
2022/09/03 06:55:08;;;;;;;5.55;0.98;;;;;;;15.73;67.92;156472.97;5041239;28;20560;-74
2022/09/03 06:57:34;;;;;;;5.43;0.95;;;;;;;15.80;67.34;156491.00;5016733;28;20033;-75
2022/09/03 07:00:03;;;;;;;4.60;1.00;;;;;;;15.92;65.87;156521.91;5033187;28;20073;-74
2022/09/03 07:02:29;;;;;;;5.63;0.90;;;;;;;15.88;65.84;156510.28;5020467;28;20044;-75
2022/09/03 07:04:55;;;;;;;5.45;0.90;;;;;;;15.92;65.58;156521.91;5022689;28;20037;-75
2022/09/03 07:07:21;;;;;;;2.95;0.93;;;;;;;16.00;65.89;156541.22;5026515;28;20083;-74
2022/09/03 07:09:46;;;;;;;5.18;0.88;;;;;;;16.00;64.91;156539.94;5016299;28;20034;-75
2022/09/03 07:12:14;;;;;;;5.15;0.80;;;;;;;16.07;65.08;156557.97;5022775;28;20044;-75
2022/09/03 07:14:40;;;;;;;2.85;1.25;;;;;;;16.19;64.29;156587.56;5023856;28;20121;-76
2022/09/03 07:17:05;;;;;;;2.78;0.80;;;;;;;16.27;64.52;156608.16;5022471;28;20112;-76
2022/09/03 07:19:31;;;;;;;8.13;1.00;;;;;;;16.48;64.17;156662.25;4999919;28;20038;-76
2022/09/03 07:22:00;;;;;;;2.50;0.57;;;;;;;16.64;64.10;156702.13;5004066;28;20029;-76
2022/09/03 07:24:26;;;;;;;1.33;0.90;;;;;;;16.64;63.30;156700.84;5006881;28;20147;-75
2022/09/03 07:26:52;;;;;;;4.25;0.80;;;;;;;16.68;63.49;156711.16;4981324;28;20034;-74
2022/09/03 07:29:21;;;;;;;3.10;0.80;;;;;;;16.77;62.88;156733.06;4999795;28;20510;-74
2022/09/03 07:31:50;;;;;;;3.17;0.90;;;;;;;16.79;62.55;156739.47;4989873;28;20029;-74
2022/09/03 07:34:15;;;;;;;5.70;1.23;;;;;;;16.94;62.43;156776.88;5016615;28;20082;-75
2022/09/03 07:36:45;;;;;;;2.85;0.80;;;;;;;17.00;62.09;156792.31;5020172;28;20057;-73
2022/09/03 07:39:13;;;;;;;2.13;0.70;;;;;;;17.18;61.31;156836.09;5021588;28;20605;-75
2022/09/03 07:41:44;;;;;;;2.58;0.80;;;;;;;17.34;61.07;156876.06;5021052;28;20049;-74
2022/09/03 07:44:14;;;;;;;4.45;0.90;;;;;;;17.29;61.22;156865.75;5022371;28;20123;-73
2022/09/03 07:46:42;;;;;;;10.00;1.10;;;;;;;17.39;61.43;156890.22;5006836;28;20245;-74
2022/09/03 07:49:08;;;;;;;3.95;0.88;;;;;;;17.48;60.70;156912.16;5015714;28;20032;-76
2022/09/03 07:51:36;;;;;;;4.03;0.98;;;;;;;17.61;60.50;156945.66;5019132;28;20033;-76
2022/09/03 07:54:05;;;;;;;4.10;0.90;;;;;;;17.73;60.15;156975.28;5016150;28;20029;-73
2022/09/03 07:56:33;;;;;;;7.25;1.08;;;;;;;17.82;59.87;156998.47;5002120;28;20029;-74
2022/09/03 07:58:59;;;;;;;3.63;0.93;;;;;;;18.06;59.30;157057.75;5000131;28;20043;-76
2022/09/03 08:01:27;;;;;;;2.85;1.00;;;;;;;18.18;58.28;157088.72;5024272;28;20029;-75
2022/09/03 08:03:54;;;;;;;4.30;0.70;;;;;;;18.25;58.32;157106.78;5023024;28;20038;-77
2022/09/03 08:06:22;;;;;;;3.65;0.90;;;;;;;18.37;58.61;157136.41;5018131;28;20054;-75
2022/09/03 08:08:48;;;;;;;5.43;0.90;;;;;;;18.49;57.37;157167.31;5016641;28;20045;-74
2022/09/03 08:11:16;;;;;;;2.83;0.95;;;;;;;18.62;57.34;157199.53;5023648;28;20033;-73
2022/09/03 08:13:44;;;;;;;4.25;0.93;;;;;;;18.74;57.43;157229.22;5017897;28;20109;-75
2022/09/03 08:16:12;;;;;;;2.78;0.73;;;;;;;18.79;56.24;157240.81;4984611;28;20115;-73
2022/09/03 08:18:38;;;;;;;3.05;0.90;;;;;;;18.84;55.73;157253.75;5031142;28;20108;-74
2022/09/03 08:21:06;;;;;;;1.90;0.77;;;;;;;18.75;56.46;157231.78;5005838;28;20100;-73
2022/09/03 08:23:36;;;;;;;1.33;0.68;;;;;;;18.80;56.01;157244.75;5005633;28;20029;-75
2022/09/03 08:26:02;;;;;;;2.65;0.80;;;;;;;18.77;55.81;157235.66;5021089;28;20029;-72
2022/09/03 08:28:28;;;;;;;3.63;0.80;;;;;;;18.97;56.02;157286.00;5024440;28;20512;-72
2022/09/03 08:30:54;;;;;;;2.55;0.73;;;;;;;19.01;55.27;157296.31;5008408;28;20060;-74
2022/09/03 08:33:35;;;;;;;4.22;0.82;;;;;;;19.19;54.87;157342.75;5005016;28;20487;-76
2022/09/03 08:36:11;;;;;;;3.85;0.80;;;;;;;19.03;54.79;157302.75;5019329;28;20033;-74
2022/09/03 08:38:38;;;;;;;9.48;0.80;;;;;;;19.20;54.80;157344.03;5019087;28;20951;-74
2022/09/03 08:41:10;;;;;;;1.83;0.88;;;;;;;19.30;54.97;157368.50;4988171;28;20037;-75
2022/09/03 08:43:48;;;;;;;;;;;;;;;19.21;54.76;157346.56;5031370;28;20033;-74
2022/09/03 08:46:15;;;;;;;2.05;0.68;;;;;;;19.45;54.33;157407.19;5016370;28;19920;-73
2022/09/03 08:48:41;;;;;;;2.80;0.63;;;;;;;19.42;54.17;157399.44;5012573;28;20084;-74
2022/09/03 08:51:10;;;;;;;6.30;0.75;;;;;;;19.49;53.78;157416.22;5000434;28;20478;-75
2022/09/03 08:53:45;;;;;;;0.88;0.80;;;;;;;19.72;52.98;157475.63;5021360;28;20030;-75
2022/09/03 08:56:20;;;;;;;1.90;0.70;;;;;;;19.72;52.94;157474.25;5030187;28;20072;-73
2022/09/03 08:58:45;;;;;;;2.67;0.73;;;;;;;19.55;53.72;157433.00;5012420;28;20034;-73
2022/09/03 09:01:26;;;;;;;0.75;0.73;;;;;;;19.82;54.11;157501.41;5003921;28;20036;-76
2022/09/03 09:04:14;;;;;;;7.80;0.80;;;;;;;20.12;52.70;157574.97;5014116;28;20026;-74
2022/09/03 09:06:46;;;;;;;5.20;1.00;;;;;;;20.31;52.53;157623.97;4997484;28;20037;-74
2022/09/03 09:09:34;;;;;;;4.30;0.87;;;;;;;20.05;52.10;157558.16;4985028;28;20056;-74
2022/09/03 09:12:08;;;;;;;4.00;0.80;;;;;;;20.14;52.49;157581.41;5032655;28;20282;-74
2022/09/03 09:14:54;;;;;;;3.70;0.85;;;;;;;20.17;51.48;157587.81;4991307;28;20029;-74
2022/09/03 09:17:26;;;;;;;1.35;0.70;;;;;;;20.39;51.00;157644.59;5018798;28;20041;-73
2022/09/03 09:20:23;;;;;;;4.50;0.95;;;;;;;20.17;51.54;157587.81;4995545;28;20570;-74
2022/09/03 09:23:00;;;;;;;1.00;0.65;;;;;;;20.13;50.65;157578.78;5016667;28;20040;-74
2022/09/03 09:25:25;;;;;;;2.45;0.80;;;;;;;20.13;51.54;157578.78;4998763;28;20117;-74
2022/09/03 09:27:56;;;;;;;4.78;0.88;;;;;;;20.36;51.40;157636.88;5018838;28;20519;-75
2022/09/03 09:30:22;;;;;;;2.15;0.90;;;;;;;20.34;50.87;157631.72;5022521;28;20981;-75
2022/09/03 09:32:48;;;;;;;3.95;0.63;;;;;;;20.47;50.93;157663.94;5024933;28;20048;-75
2022/09/03 09:35:16;;;;;;;7.30;0.88;;;;;;;20.47;50.13;157662.66;5001743;28;20042;-75
2022/09/03 09:37:52;;;;;;;4.10;0.93;;;;;;;20.27;51.93;157612.34;5011615;28;20049;-75
2022/09/03 09:40:31;;;;;;;7.60;1.20;;;;;;;19.94;52.47;157529.78;5010721;28;20065;-73
2022/09/03 09:43:15;;;;;;;2.78;0.60;;;;;;;20.01;52.75;157547.84;5006331;28;20076;-76
2022/09/03 09:45:47;;;;;;;3.85;0.63;;;;;;;20.25;51.62;157607.19;5015416;28;20046;-75
2022/09/03 09:48:16;;;;;;;1.50;0.90;;;;;;;20.38;50.00;157642.03;5006979;28;20045;-72
2022/09/03 09:50:41;;;;;;;3.88;0.70;;;;;;;20.49;48.43;157667.84;5027159;28;20052;-73
2022/09/03 09:53:16;;;;;;;1.30;0.75;;;;;;;20.51;48.08;157674.31;5023278;28;20033;-75
2022/09/03 09:55:50;;;;;;;3.10;0.90;;;;;;;20.75;48.50;157734.97;5003803;28;20034;-73
2022/09/03 09:58:18;;;;;;;4.38;0.70;;;;;;;20.85;47.16;157759.53;4987082;28;20033;-75
2022/09/03 10:01:02;;;;;;;3.00;0.98;;;;;;;20.98;46.56;157793.09;5019886;28;20065;-75
2022/09/03 10:03:34;;;;;;;2.10;0.68;;;;;;;21.36;45.40;157887.28;5019658;28;20064;-75
2022/09/03 10:09:08;;;;;;;0.98;0.50;;;;;;;21.63;46.03;157954.50;5002165;28;20609;-74
2022/09/03 10:11:38;;;;;;;2.80;0.90;;;;;;;21.74;43.90;157982.91;5014698;28;20040;-74
2022/09/03 10:14:10;;;;;;;2.88;0.65;;;;;;;21.44;44.67;157906.69;5010284;28;20029;-74
2022/09/03 10:16:41;;;;;;;3.05;1.08;;;;;;;21.49;45.42;157919.63;5017829;28;20064;-75
2022/09/03 10:19:19;;;;;;;2.70;0.60;;;;;;;21.79;44.26;157995.78;5008364;28;20190;-76
2022/09/03 10:21:54;;;;;;;6.20;0.70;;;;;;;21.82;44.42;158002.28;5015084;28;20169;-75
2022/09/03 10:24:53;;;;;;;6.13;0.70;;;;;;;22.07;44.04;158065.53;5002600;28;20403;-75
2022/09/03 10:27:21;;;;;;;4.63;0.77;;;;;;;22.21;43.75;158101.72;5007115;28;20046;-75
2022/09/03 10:29:47;;;;;;;3.28;0.80;;;;;;;22.14;42.62;158083.63;5001440;28;20064;-75
2022/09/03 10:32:34;;;;;;;2.38;0.70;;;;;;;21.81;43.83;157999.69;5018084;28;20105;-75
2022/09/03 10:35:11;;;;;;;1.67;0.93;;;;;;;22.06;44.75;158064.25;5022864;28;20025;-74
2022/09/03 10:37:55;;;;;;;2.15;0.70;;;;;;;21.99;43.48;158046.19;5005428;28;20552;-75
2022/09/03 10:40:37;;;;;;;1.45;0.73;;;;;;;21.91;43.52;158025.53;5018871;28;20113;-75
2022/09/03 10:43:28;;;;;;;3.17;0.80;;;;;;;21.38;45.55;157892.50;5006547;28;20034;-73
2022/09/03 10:46:12;;;;;;;3.60;0.80;;;;;;;21.47;45.39;157915.75;5036915;28;20474;-74
2022/09/03 10:49:09;;;;;;;3.03;0.85;;;;;;;21.62;43.79;157953.19;4999903;28;20054;-75
2022/09/03 10:51:40;;;;;;;3.00;0.95;;;;;;;21.98;42.99;158043.56;5009766;28;20495;-73
2022/09/03 10:54:24;;;;;;;13.67;0.80;;;;;;;22.31;41.51;158126.31;4987997;28;20051;-73
2022/09/03 10:57:09;;;;;;;2.40;0.90;;;;;;;22.08;40.89;158069.44;5017939;28;20050;-73
2022/09/03 10:59:57;;;;;;;5.45;0.85;;;;;;;21.87;41.59;158016.50;5015425;28;20513;-76
2022/09/03 11:02:39;;;;;;;6.28;1.00;;;;;;;22.26;40.92;158113.38;5007749;28;20056;-75
2022/09/03 11:05:15;;;;;;;;;;;;;;;22.15;41.09;158086.19;5024373;28;20041;-75
2022/09/03 11:07:48;;;;;;;1.85;0.70;;;;;;;21.97;41.16;158041.00;5015459;28;19909;-75
2022/09/03 11:10:23;;;;;;;5.28;0.80;;;;;;;21.94;41.05;158033.25;5020693;28;20040;-74
2022/09/03 11:13:03;;;;;;;4.22;0.60;;;;;;;21.72;41.44;157979.03;5004284;28;20041;-73
2022/09/03 11:15:49;;;;;;;2.60;0.63;;;;;;;21.46;41.70;157911.91;4999630;28;20040;-75
2022/09/03 11:18:33;;;;;;;2.17;0.50;;;;;;;21.79;39.75;157995.78;5021340;28;20029;-74
2022/09/03 11:21:04;;;;;;;4.28;0.98;;;;;;;21.97;39.85;158041.00;5019949;28;20040;-76
2022/09/03 11:23:39;;;;;;;4.38;0.82;;;;;;;21.41;41.34;157900.22;5002308;28;20041;-74
2022/09/03 11:26:11;;;;;;;6.75;0.90;;;;;;;20.94;40.45;157782.72;5000147;28;20123;-76
2022/09/03 11:29:08;;;;;;;4.07;1.10;;;;;;;21.10;41.00;157822.75;5005438;28;20026;-75
2022/09/03 11:31:56;;;;;;;3.30;1.33;;;;;;;21.86;39.88;158012.59;5023026;28;20434;-74
2022/09/03 11:34:45;;;;;;;2.90;0.70;;;;;;;21.60;39.63;157948.03;5008834;28;20044;-74
2022/09/03 11:37:28;;;;;;;3.72;0.70;;;;;;;21.17;40.77;157839.53;5021215;28;20160;-76
2022/09/03 11:40:02;;;;;;;1.77;0.70;;;;;;;20.95;41.26;157785.34;5015631;28;20638;-74
2022/09/03 11:42:34;;;;;;;4.20;0.80;;;;;;;21.07;40.90;157813.72;5023671;28;20030;-74
2022/09/03 11:45:26;;;;;;;5.00;0.70;;;;;;;21.85;39.98;158010.00;4990205;28;20041;-76
2022/09/03 11:47:53;;;;;;;3.80;0.80;;;;;;;22.03;39.91;158056.50;5018862;28;20065;-74
2022/09/03 11:50:23;;;;;;;2.58;0.73;;;;;;;22.42;38.74;158154.72;5017012;28;20131;-74
2022/09/03 11:52:52;;;;;;;3.67;0.80;;;;;;;22.65;37.86;158212.84;5005347;28;20041;-73
2022/09/03 11:55:32;;;;;;;2.53;0.65;;;;;;;22.85;37.75;158263.25;5039029;28;20449;-75